PWSweather.com
Personal Weather Stations
Station Observations
WISCHPK61
Green Bay Schmitt Park, Green Bay, WI 54311

Green Bay Schmitt ParkGreen Bay, WI 54311

Lat: 44.514277, Lon: -87.935067

Elevation: 735

Station Type: Acu Rite Pro Weather Center model 02032C

http://greenbayweathercam.com

High Low Average
Temperature 74.1°F23.4°C 55.2°F12.9°C 60.9°F16.1°C
Dew Point 73.8°F23.2°C 40.4°F4.7°C 59.1°F15.1°C
Winds Calm Calm Calm Calm Calm SCalm S
Wind Gusts 2.3 mph3.7 kmh -- --
Humidity 99% 53% 95%
Pressure 29.17 in987.8 mb 29.00 in982.1 mb -
Precipitation 0.01 in0.3 mm - -
Hour Temp Dew Point Humidity Winds Wind Gusts Pressure Precip Precip Rate Daily Precip Total
12:00 AM 61.7°F16.5°C 61.4°F16.3°C 99% Calm Calm -- 29.01 in982.4 mb - 0.00 in0.0 mm 0.00 in0.0 mm
01:00 AM 62.6°F17.0°C 58.4°F14.7°C 86% Calm Calm -- 29.01 in982.4 mb - 0.01 in0.3 mm 0.01 in0.3 mm
02:00 AM 62.4°F16.9°C 62.1°F16.7°C 99% Calm Calm -- 29.01 in982.4 mb - 0.00 in0.0 mm 0.01 in0.3 mm
03:00 AM 61.9°F16.6°C 61.6°F16.4°C 99% Calm Calm -- 29.01 in982.4 mb - 0.00 in0.0 mm 0.01 in0.3 mm
04:00 AM 61.2°F16.2°C 60.9°F16.1°C 99% Calm Calm -- 29.00 in982.1 mb - 0.00 in0.0 mm 0.01 in0.3 mm
05:00 AM 60.8°F16.0°C 56.6°F13.7°C 86% Calm Calm -- 29.02 in982.7 mb - 0.00 in0.0 mm 0.01 in0.3 mm
06:00 AM 60.1°F15.6°C 59.8°F15.4°C 99% Calm Calm -- 29.04 in983.4 mb - 0.00 in0.0 mm 0.01 in0.3 mm
07:00 AM 60.6°F15.9°C 60.3°F15.7°C 99% Calm Calm -- 29.04 in983.4 mb - 0.00 in0.0 mm 0.01 in0.3 mm
08:00 AM 58.5°F14.7°C 58.2°F14.6°C 99% Calm Calm -- 29.06 in984.1 mb - 0.00 in0.0 mm 0.01 in0.3 mm
09:00 AM 56.7°F13.7°C 56.4°F13.6°C 99% Calm Calm -- 29.09 in985.1 mb - 0.00 in0.0 mm 0.01 in0.3 mm
10:00 AM 55.6°F13.1°C 55.3°F12.9°C 99% Calm Calm -- 29.12 in986.1 mb - 0.00 in0.0 mm 0.01 in0.3 mm
11:00 AM 55.4°F13.0°C 55.1°F12.8°C 99% Calm Calm -- 29.14 in986.8 mb - 0.00 in0.0 mm 0.01 in0.3 mm
12:00 PM 56.7°F13.7°C 56.2°F13.4°C 98% Calm Calm -- 29.15 in987.1 mb - 0.00 in0.0 mm 0.01 in0.3 mm
01:00 PM 63.1°F17.3°C 62.8°F17.1°C 99% Calm Calm -- 29.15 in987.1 mb - 0.00 in0.0 mm 0.01 in0.3 mm
02:00 PM 71.0°F21.7°C 67.2°F19.6°C 88% Calm Calm 2.3 mph3.7 kmh 29.14 in986.8 mb - 0.00 in0.0 mm 0.01 in0.3 mm
03:00 PM 74.1°F23.4°C 73.8°F23.2°C 99% Calm Calm -- 29.13 in986.5 mb - 0.00 in0.0 mm 0.01 in0.3 mm
04:00 PM 66.6°F19.2°C 66.3°F19.1°C 99% Calm Calm -- 29.15 in987.1 mb - 0.00 in0.0 mm 0.01 in0.3 mm
05:00 PM 64.6°F18.1°C 64.3°F17.9°C 99% Calm Calm -- 29.15 in987.1 mb - 0.00 in0.0 mm 0.01 in0.3 mm
06:00 PM 63.3°F17.4°C 63.0°F17.2°C 99% Calm Calm -- 29.15 in987.1 mb - 0.00 in0.0 mm 0.01 in0.3 mm
07:00 PM 61.5°F16.4°C 61.2°F16.2°C 99% Calm Calm 1.2 mph1.9 kmh 29.16 in987.5 mb - 0.00 in0.0 mm 0.01 in0.3 mm
08:00 PM 59.4°F15.2°C 59.1°F15.1°C 99% Calm Calm -- 29.15 in987.1 mb - 0.00 in0.0 mm 0.01 in0.3 mm
09:00 PM 57.4°F14.1°C 40.4°F4.7°C 53% Calm Calm -- 29.17 in987.8 mb - 0.00 in0.0 mm 0.01 in0.3 mm
10:00 PM 56.7°F13.7°C 56.4°F13.6°C 99% Calm Calm -- 29.17 in987.8 mb - 0.00 in0.0 mm 0.01 in0.3 mm
11:00 PM 55.2°F12.9°C 54.9°F12.7°C 99% Calm Calm -- 29.15 in987.1 mb - 0.00 in0.0 mm 0.01 in0.3 mm